createdAt,value
2022-10-09T00:03:45.967Z,188.61
2022-10-09T00:09:17.670Z,192.26
2022-10-09T00:14:49.404Z,189.59
2022-10-09T00:20:21.053Z,189.59
2022-10-09T00:25:52.939Z,188.72
2022-10-09T00:31:24.581Z,190.03
2022-10-09T00:42:26.097Z,190.14
2022-10-09T00:47:57.473Z,189.48
2022-10-09T00:53:29.341Z,191.58
2022-10-09T00:59:00.772Z,192.26
2022-10-09T01:04:32.349Z,192.82
2022-10-09T01:10:03.957Z,194.88
2022-10-09T01:21:05.048Z,193.85
2022-10-09T01:26:36.624Z,193.96
2022-10-09T01:32:08.368Z,193.50
2022-10-09T01:37:40.115Z,194.42
2022-10-09T01:43:11.770Z,195.00
2022-10-09T01:48:43.392Z,196.99
2022-10-09T01:54:15.293Z,196.99
2022-10-09T01:59:47.039Z,196.75
2022-10-09T02:05:18.961Z,197.70
2022-10-09T02:10:51.151Z,199.14
2022-10-09T02:16:22.880Z,201.09
2022-10-09T02:21:54.724Z,200.36
2022-10-09T02:32:55.060Z,202.46
2022-10-09T02:43:56.425Z,202.84
2022-10-09T02:49:28.257Z,204.10
2022-10-09T02:54:59.921Z,205.37
2022-10-09T03:11:30.708Z,205.50
2022-10-09T03:17:02.404Z,207.45
2022-10-09T03:22:34.055Z,206.80
2022-10-09T03:28:06.018Z,206.28
2022-10-09T03:33:37.661Z,207.98
2022-10-09T03:39:09.424Z,208.51
2022-10-09T03:44:41.173Z,208.90
2022-10-09T03:50:12.951Z,206.67
2022-10-09T03:55:46.535Z,207.98
2022-10-09T04:06:47.906Z,209.30
2022-10-09T04:12:20.020Z,210.92
2022-10-09T04:17:51.622Z,208.64
2022-10-09T04:23:23.400Z,209.44
2022-10-09T04:28:55.371Z,208.77
2022-10-09T04:34:27.156Z,208.90
2022-10-09T04:39:59.067Z,209.17
2022-10-09T04:45:31.597Z,209.44
2022-10-09T05:02:02.340Z,209.97
2022-10-09T05:07:33.981Z,209.84
2022-10-09T05:13:06.083Z,210.38
2022-10-09T05:24:10.379Z,212.01
2022-10-09T05:35:09.384Z,212.01
2022-10-09T05:40:41.136Z,210.65
2022-10-09T05:46:12.902Z,208.64
2022-10-09T05:51:44.547Z,206.93
2022-10-09T05:57:16.469Z,206.15
2022-10-09T06:02:48.306Z,204.48
2022-10-09T06:08:19.901Z,199.63
2022-10-09T06:13:51.948Z,195.58
2022-10-09T06:19:23.871Z,192.37
2022-10-09T06:24:55.567Z,191.81
2022-10-09T06:30:27.391Z,187.10
2022-10-09T06:36:08.536Z,184.79
2022-10-09T06:41:30.907Z,186.04
2022-10-09T06:47:02.500Z,185.42
2022-10-09T06:52:34.533Z,182.58
2022-10-09T06:58:06.193Z,179.82
2022-10-09T07:03:37.925Z,179.43
2022-10-09T07:09:10.012Z,180.80
2022-10-09T07:14:41.739Z,185.21
2022-10-09T07:20:13.589Z,185.10
2022-10-09T07:22:27.144Z,186.68
2022-10-09T07:27:56.853Z,192.93
2022-10-09T07:38:58.071Z,195.81
2022-10-09T07:44:29.862Z,195.35
2022-10-09T07:50:01.683Z,195.81
2022-10-09T07:55:33.566Z,198.18
2022-10-09T08:01:05.310Z,195.58
2022-10-09T08:06:37.128Z,200.97
2022-10-09T08:17:39.820Z,198.54
2022-10-09T08:23:11.637Z,199.38
2022-10-09T08:28:43.654Z,201.09
2022-10-09T08:34:15.301Z,198.30
2022-10-09T08:39:46.716Z,200.48
2022-10-09T08:45:18.444Z,199.14
2022-10-09T08:50:49.915Z,199.14
2022-10-09T08:56:21.704Z,199.26
2022-10-09T09:01:53.192Z,200.97
2022-10-09T09:07:24.958Z,198.66
2022-10-09T09:12:56.912Z,199.14
2022-10-09T09:18:28.919Z,199.75
2022-10-09T09:24:00.446Z,197.11
2022-10-09T09:29:31.874Z,197.35
2022-10-09T09:35:03.486Z,197.35
2022-10-09T09:40:37.123Z,200.73
2022-10-09T09:46:06.960Z,202.46
2022-10-09T09:48:31.018Z,205.76
2022-10-09T09:54:02.314Z,212.56
2022-10-09T09:59:33.832Z,215.49
2022-10-09T10:05:05.729Z,216.91
2022-10-09T10:10:37.381Z,218.79
2022-10-09T10:16:08.884Z,223.11
2022-10-09T10:21:40.708Z,223.41
2022-10-09T10:27:12.518Z,226.03
2022-10-09T10:32:44.259Z,223.72
2022-10-09T10:38:16.113Z,225.10
2022-10-09T10:43:47.884Z,224.95
2022-10-09T10:49:19.662Z,224.95
2022-10-09T10:54:51.477Z,226.03
2022-10-09T11:00:23.281Z,226.81
2022-10-09T11:05:55.087Z,225.87
2022-10-09T11:16:56.304Z,224.18
2022-10-09T11:22:28.132Z,223.41
2022-10-09T11:28:00.213Z,222.35
2022-10-09T11:33:31.769Z,221.15
2022-10-09T11:39:03.187Z,219.09
2022-10-09T11:44:34.987Z,218.65
2022-10-09T11:50:06.490Z,215.35
2022-10-09T11:52:30.495Z,218.36
2022-10-09T11:58:01.948Z,219.53
2022-10-09T12:03:33.693Z,217.78
2022-10-09T12:09:05.264Z,214.36
2022-10-09T12:14:37.063Z,212.97
2022-10-09T12:20:08.907Z,212.70
2022-10-09T12:25:40.642Z,209.84
2022-10-09T12:31:12.710Z,207.85
2022-10-09T12:36:44.189Z,205.76
2022-10-09T12:42:15.451Z,205.63
2022-10-09T12:47:46.691Z,205.50
2022-10-09T12:58:47.679Z,204.10
2022-10-09T13:04:19.491Z,202.84
2022-10-09T13:09:50.935Z,202.33
2022-10-09T13:15:22.352Z,202.46
2022-10-09T13:20:54.125Z,202.46
2022-10-09T13:26:25.742Z,201.46
2022-10-09T13:31:57.314Z,200.48
2022-10-09T13:37:29.083Z,201.09
2022-10-09T13:43:00.905Z,200.85
2022-10-09T13:48:32.673Z,199.02
2022-10-09T13:54:04.616Z,199.75
2022-10-09T13:59:36.081Z,200.11
2022-10-09T14:05:07.691Z,198.78
2022-10-09T14:10:39.306Z,198.90
2022-10-09T14:16:11.943Z,197.82
2022-10-09T14:21:43.681Z,197.82
2022-10-09T14:27:15.443Z,197.70
2022-10-09T14:32:49.505Z,196.99
2022-10-09T14:38:20.713Z,196.52
2022-10-09T14:43:52.168Z,196.40
2022-10-09T14:49:23.953Z,197.11
2022-10-09T14:54:55.554Z,196.05
2022-10-09T15:00:26.735Z,197.23
2022-10-09T15:05:58.224Z,196.28
2022-10-09T15:11:30.082Z,197.58
2022-10-09T15:17:01.837Z,197.23
2022-10-09T15:22:32.977Z,198.18
2022-10-09T15:28:04.421Z,199.26
2022-10-09T15:33:35.860Z,200.36
2022-10-09T15:39:07.525Z,199.75
2022-10-09T15:44:38.867Z,203.97
2022-10-09T15:50:10.674Z,202.33
2022-10-09T15:55:42.499Z,203.72
2022-10-09T16:01:14.410Z,204.61
2022-10-09T16:06:45.680Z,206.54
2022-10-09T16:12:17.094Z,207.19
2022-10-09T16:17:48.993Z,208.90
2022-10-09T16:23:20.814Z,210.51
2022-10-09T16:28:52.453Z,211.87
2022-10-09T16:34:24.452Z,214.08
2022-10-09T16:39:55.746Z,212.70
2022-10-09T16:50:58.858Z,214.50
2022-10-09T16:56:30.615Z,214.50
2022-10-09T17:02:02.361Z,216.34
2022-10-09T17:07:33.979Z,215.91
2022-10-09T17:13:05.446Z,218.36
2022-10-09T17:18:37.239Z,219.09
2022-10-09T17:24:09.094Z,220.41
2022-10-09T17:29:40.835Z,220.12
2022-10-09T17:35:12.604Z,221.15
2022-10-09T17:40:44.152Z,222.20
2022-10-09T17:46:15.447Z,221.60
2022-10-09T17:51:46.795Z,224.18
2022-10-09T17:57:18.262Z,224.64
2022-10-09T18:02:49.659Z,223.87
2022-10-09T18:08:21.558Z,224.18
2022-10-09T18:13:53.313Z,226.50
2022-10-09T18:19:24.924Z,226.18
2022-10-09T18:24:56.716Z,223.11
2022-10-09T18:30:28.301Z,222.65
2022-10-09T18:35:59.968Z,221.45
2022-10-09T18:41:32.430Z,219.38
2022-10-09T18:49:25.512Z,227.91
2022-10-09T18:54:57.371Z,228.23
2022-10-09T19:00:28.862Z,230.96
2022-10-09T19:06:00.403Z,229.67
2022-10-09T19:11:32.152Z,228.55
2022-10-09T19:17:03.531Z,229.99
2022-10-09T19:22:35.044Z,232.43
2022-10-09T19:28:06.930Z,230.48
2022-10-09T19:33:38.382Z,231.45
2022-10-09T19:39:09.759Z,233.59
2022-10-09T19:44:41.228Z,231.78
2022-10-09T19:50:13.125Z,231.78
2022-10-09T19:55:44.554Z,233.10
2022-10-09T20:01:15.880Z,231.29
2022-10-09T20:06:47.477Z,233.93
2022-10-09T20:17:49.486Z,231.61
2022-10-09T20:23:20.699Z,232.10
2022-10-09T20:28:52.315Z,233.43
2022-10-09T20:39:52.802Z,233.26
2022-10-09T20:45:24.211Z,233.59
2022-10-09T20:50:55.562Z,236.11
2022-10-09T20:56:26.802Z,232.27
2022-10-09T21:01:58.229Z,232.76
2022-10-09T21:07:29.365Z,229.67
2022-10-09T21:13:00.804Z,228.39
2022-10-09T21:18:32.422Z,228.87
2022-10-09T21:24:03.642Z,229.03
2022-10-09T21:29:34.946Z,229.51
2022-10-09T21:35:06.231Z,229.03
2022-10-09T21:40:37.604Z,228.55
2022-10-09T21:46:08.859Z,226.65
2022-10-09T21:51:40.276Z,219.53
2022-10-09T21:57:11.980Z,219.53
2022-10-09T22:02:43.182Z,219.23
2022-10-09T22:08:14.348Z,219.97
2022-10-09T22:13:45.721Z,220.56
2022-10-09T22:19:17.113Z,218.36
2022-10-09T22:24:48.687Z,218.36
2022-10-09T22:30:20.001Z,215.91
2022-10-09T22:41:21.057Z,213.67
2022-10-09T22:46:52.743Z,211.87
2022-10-09T22:52:24.108Z,209.84
2022-10-09T22:57:55.378Z,203.09
2022-10-09T23:03:27.057Z,198.18
2022-10-09T23:14:28.116Z,199.99
2022-10-09T23:19:59.848Z,200.36
2022-10-09T23:25:31.421Z,200.48
2022-10-09T23:31:02.679Z,200.60
2022-10-09T23:36:34.183Z,200.48
2022-10-09T23:38:57.630Z,201.59
2022-10-09T23:44:29.084Z,204.99
2022-10-09T23:50:00.954Z,199.99
2022-10-09T23:55:32.988Z,198.54
